sensor_id;sensor_type;location;lat;lon;timestamp;P1;durP1;ratioP1;P2;durP2;ratioP2
33593;SDS011;19920;52.242;20.940;2023-06-14T11:16:37;6.63;;;2.90;;
33593;SDS011;19920;52.242;20.940;2023-06-14T11:19:03;6.93;;;3.13;;
33593;SDS011;19920;52.242;20.940;2023-06-14T11:21:29;6.07;;;3.00;;
33593;SDS011;19920;52.242;20.940;2023-06-14T11:23:56;7.93;;;3.47;;
33593;SDS011;19920;52.242;20.940;2023-06-14T11:26:26;9.13;;;3.80;;
33593;SDS011;19920;52.242;20.940;2023-06-14T11:28:56;5.80;;;3.83;;
33593;SDS011;19920;52.242;20.940;2023-06-14T11:31:26;7.28;;;3.65;;
33593;SDS011;19920;52.242;20.940;2023-06-14T11:33:56;6.38;;;3.80;;
33593;SDS011;19920;52.242;20.940;2023-06-14T11:36:30;10.45;;;4.13;;
33593;SDS011;19920;52.242;20.940;2023-06-14T11:39:03;10.23;;;4.13;;
33593;SDS011;19920;52.242;20.940;2023-06-14T11:41:38;8.57;;;3.75;;
33593;SDS011;19920;52.242;20.940;2023-06-14T11:44:06;9.10;;;3.58;;
33593;SDS011;19920;52.242;20.940;2023-06-14T11:46:33;9.93;;;3.35;;
33593;SDS011;19920;52.242;20.940;2023-06-14T11:48:58;7.30;;;2.70;;
33593;SDS011;19920;52.242;20.940;2023-06-14T12:45:25;6.32;;;3.05;;
33593;SDS011;19920;52.242;20.940;2023-06-14T12:47:51;5.00;;;3.33;;
33593;SDS011;19920;52.242;20.940;2023-06-14T12:50:17;5.45;;;3.22;;
33593;SDS011;19920;52.242;20.940;2023-06-14T12:52:42;5.10;;;3.30;;
33593;SDS011;19920;52.242;20.940;2023-06-14T12:55:08;5.28;;;3.10;;
33593;SDS011;19920;52.242;20.940;2023-06-14T12:57:34;4.95;;;3.20;;
33593;SDS011;19920;52.242;20.940;2023-06-14T13:00:01;4.80;;;3.00;;
33593;SDS011;19920;52.242;20.940;2023-06-14T13:02:28;3.97;;;2.70;;
33593;SDS011;19920;52.242;20.940;2023-06-14T13:04:54;4.75;;;2.90;;
33593;SDS011;19920;52.242;20.940;2023-06-14T13:07:19;6.38;;;3.00;;
33593;SDS011;19920;52.242;20.940;2023-06-14T13:09:45;5.00;;;2.78;;
33593;SDS011;19920;52.242;20.940;2023-06-14T13:12:11;4.50;;;2.40;;
33593;SDS011;19920;52.242;20.940;2023-06-14T13:14:37;4.85;;;2.30;;
33593;SDS011;19920;52.242;20.940;2023-06-14T13:17:03;5.20;;;2.10;;
33593;SDS011;19920;52.242;20.940;2023-06-14T13:19:30;4.10;;;2.22;;
33593;SDS011;19920;52.242;20.940;2023-06-14T13:21:56;5.05;;;1.90;;
33593;SDS011;19920;52.242;20.940;2023-06-14T13:24:21;2.95;;;2.10;;
33593;SDS011;19920;52.242;20.940;2023-06-14T13:26:47;4.43;;;2.20;;
33593;SDS011;19920;52.242;20.940;2023-06-14T13:29:13;4.00;;;2.35;;
33593;SDS011;19920;52.242;20.940;2023-06-14T13:31:38;3.67;;;2.47;;
33593;SDS011;19920;52.242;20.940;2023-06-14T13:34:04;5.57;;;2.45;;
33593;SDS011;19920;52.242;20.940;2023-06-14T13:36:30;3.25;;;1.98;;
33593;SDS011;19920;52.242;20.940;2023-06-14T13:38:56;5.00;;;2.40;;
33593;SDS011;19920;52.242;20.940;2023-06-14T13:41:23;2.83;;;2.63;;
33593;SDS011;19920;52.242;20.940;2023-06-14T13:43:56;3.28;;;2.33;;
33593;SDS011;19920;52.242;20.940;2023-06-14T13:46:23;5.10;;;2.67;;
33593;SDS011;19920;52.242;20.940;2023-06-14T13:48:48;5.63;;;2.67;;
33593;SDS011;19920;52.242;20.940;2023-06-14T13:51:14;6.05;;;2.88;;
33593;SDS011;19920;52.242;20.940;2023-06-14T13:53:39;7.07;;;2.75;;
33593;SDS011;19920;52.242;20.940;2023-06-14T13:56:05;6.07;;;2.97;;
33593;SDS011;19920;52.242;20.940;2023-06-14T13:58:31;4.93;;;2.90;;
33593;SDS011;19920;52.242;20.940;2023-06-14T14:00:57;3.30;;;2.95;;
33593;SDS011;19920;52.242;20.940;2023-06-14T14:03:24;7.32;;;3.60;;
33593;SDS011;19920;52.242;20.940;2023-06-14T14:05:50;6.53;;;3.33;;
33593;SDS011;19920;52.242;20.940;2023-06-14T14:08:15;6.15;;;3.53;;
33593;SDS011;19920;52.242;20.940;2023-06-14T14:10:41;6.65;;;3.20;;
33593;SDS011;19920;52.242;20.940;2023-06-14T14:13:06;4.85;;;3.33;;
33593;SDS011;19920;52.242;20.940;2023-06-14T14:15:32;8.23;;;3.00;;
33593;SDS011;19920;52.242;20.940;2023-06-14T14:17:59;8.30;;;2.90;;
33593;SDS011;19920;52.242;20.940;2023-06-14T14:20:25;5.60;;;2.78;;
33593;SDS011;19920;52.242;20.940;2023-06-14T14:22:51;7.80;;;2.60;;
33593;SDS011;19920;52.242;20.940;2023-06-14T14:25:16;3.55;;;2.80;;
33593;SDS011;19920;52.242;20.940;2023-06-14T14:27:42;4.00;;;2.63;;
33593;SDS011;19920;52.242;20.940;2023-06-14T14:30:08;5.45;;;2.88;;
33593;SDS011;19920;52.242;20.940;2023-06-14T14:32:34;5.95;;;2.58;;
33593;SDS011;19920;52.242;20.940;2023-06-14T14:35:00;3.70;;;2.88;;
33593;SDS011;19920;52.242;20.940;2023-06-14T14:37:25;4.30;;;2.42;;
33593;SDS011;19920;52.242;20.940;2023-06-14T14:39:51;3.63;;;2.90;;
33593;SDS011;19920;52.242;20.940;2023-06-14T14:42:16;6.32;;;3.30;;
33593;SDS011;19920;52.242;20.940;2023-06-14T14:44:43;5.00;;;2.72;;
33593;SDS011;19920;52.242;20.940;2023-06-14T14:47:09;3.67;;;3.05;;
33593;SDS011;19920;52.242;20.940;2023-06-14T14:49:35;5.32;;;2.97;;
33593;SDS011;19920;52.242;20.940;2023-06-14T14:52:01;5.55;;;2.53;;
33593;SDS011;19920;52.242;20.940;2023-06-14T14:54:27;2.83;;;2.53;;
33593;SDS011;19920;52.242;20.940;2023-06-14T14:56:54;4.72;;;2.80;;
33593;SDS011;19920;52.242;20.940;2023-06-14T14:59:20;5.72;;;3.03;;
33593;SDS011;19920;52.242;20.940;2023-06-14T15:01:47;4.03;;;2.78;;
33593;SDS011;19920;52.242;20.940;2023-06-14T15:04:12;5.38;;;2.95;;
33593;SDS011;19920;52.242;20.940;2023-06-14T15:06:38;4.35;;;2.97;;
33593;SDS011;19920;52.242;20.940;2023-06-14T15:09:05;3.95;;;2.80;;
33593;SDS011;19920;52.242;20.940;2023-06-14T15:11:31;6.32;;;3.05;;
33593;SDS011;19920;52.242;20.940;2023-06-14T15:13:56;4.25;;;2.92;;
33593;SDS011;19920;52.242;20.940;2023-06-14T15:16:22;5.80;;;3.38;;
33593;SDS011;19920;52.242;20.940;2023-06-14T15:18:48;6.93;;;3.33;;
33593;SDS011;19920;52.242;20.940;2023-06-14T15:21:13;4.38;;;3.40;;
33593;SDS011;19920;52.242;20.940;2023-06-14T15:23:39;8.20;;;3.70;;
33593;SDS011;19920;52.242;20.940;2023-06-14T15:26:05;6.97;;;3.90;;
33593;SDS011;19920;52.242;20.940;2023-06-14T15:28:30;6.25;;;3.30;;
33593;SDS011;19920;52.242;20.940;2023-06-14T15:30:58;7.97;;;3.10;;
33593;SDS011;19920;52.242;20.940;2023-06-14T15:33:24;4.13;;;3.05;;
33593;SDS011;19920;52.242;20.940;2023-06-14T15:35:50;3.92;;;3.08;;
33593;SDS011;19920;52.242;20.940;2023-06-14T15:38:15;7.80;;;2.97;;
33593;SDS011;19920;52.242;20.940;2023-06-14T15:40:41;6.25;;;2.72;;
33593;SDS011;19920;52.242;20.940;2023-06-14T15:43:06;5.28;;;2.75;;
33593;SDS011;19920;52.242;20.940;2023-06-14T15:45:32;3.42;;;2.75;;
33593;SDS011;19920;52.242;20.940;2023-06-14T15:47:58;4.40;;;2.90;;
33593;SDS011;19920;52.242;20.940;2023-06-14T15:50:24;4.28;;;2.65;;
33593;SDS011;19920;52.242;20.940;2023-06-14T15:52:51;2.97;;;2.67;;
33593;SDS011;19920;52.242;20.940;2023-06-14T15:55:16;4.95;;;3.10;;
33593;SDS011;19920;52.242;20.940;2023-06-14T15:57:42;7.82;;;3.30;;
33593;SDS011;19920;52.242;20.940;2023-06-14T16:00:08;4.20;;;3.17;;
33593;SDS011;19920;52.242;20.940;2023-06-14T16:02:34;4.35;;;2.58;;
33593;SDS011;19920;52.242;20.940;2023-06-14T16:05:00;4.07;;;2.85;;
33593;SDS011;19920;52.242;20.940;2023-06-14T16:07:25;4.35;;;2.97;;
33593;SDS011;19920;52.242;20.940;2023-06-14T16:09:51;5.65;;;2.95;;
33593;SDS011;19920;52.242;20.940;2023-06-14T16:12:17;3.80;;;3.13;;
33593;SDS011;19920;52.242;20.940;2023-06-14T16:14:42;4.28;;;3.00;;
33593;SDS011;19920;52.242;20.940;2023-06-14T16:17:08;6.97;;;3.00;;
33593;SDS011;19920;52.242;20.940;2023-06-14T16:19:34;6.80;;;3.33;;
33593;SDS011;19920;52.242;20.940;2023-06-14T16:21:59;4.22;;;3.45;;
33593;SDS011;19920;52.242;20.940;2023-06-14T16:24:25;5.35;;;3.78;;
33593;SDS011;19920;52.242;20.940;2023-06-14T16:26:50;5.68;;;3.30;;
33593;SDS011;19920;52.242;20.940;2023-06-14T16:29:19;6.13;;;2.97;;
33593;SDS011;19920;52.242;20.940;2023-06-14T16:31:44;6.82;;;2.85;;
33593;SDS011;19920;52.242;20.940;2023-06-14T16:34:10;3.72;;;2.63;;
33593;SDS011;19920;52.242;20.940;2023-06-14T16:36:36;9.90;;;2.95;;
33593;SDS011;19920;52.242;20.940;2023-06-14T16:39:03;5.82;;;3.30;;
33593;SDS011;19920;52.242;20.940;2023-06-14T16:41:29;6.10;;;3.28;;
33593;SDS011;19920;52.242;20.940;2023-06-14T16:43:54;5.38;;;3.38;;
33593;SDS011;19920;52.242;20.940;2023-06-14T16:46:32;6.85;;;3.90;;
33593;SDS011;19920;52.242;20.940;2023-06-14T16:48:59;7.10;;;3.92;;
33593;SDS011;19920;52.242;20.940;2023-06-14T16:51:25;6.88;;;3.50;;
33593;SDS011;19920;52.242;20.940;2023-06-14T16:53:52;4.70;;;3.92;;
33593;SDS011;19920;52.242;20.940;2023-06-14T16:56:18;7.18;;;4.35;;
33593;SDS011;19920;52.242;20.940;2023-06-14T16:58:45;5.22;;;4.22;;
33593;SDS011;19920;52.242;20.940;2023-06-14T17:01:10;5.68;;;4.50;;
33593;SDS011;19920;52.242;20.940;2023-06-14T17:03:37;8.32;;;3.97;;
33593;SDS011;19920;52.242;20.940;2023-06-14T17:06:03;11.07;;;4.28;;
33593;SDS011;19920;52.242;20.940;2023-06-14T17:08:29;4.63;;;4.10;;
33593;SDS011;19920;52.242;20.940;2023-06-14T17:10:55;9.27;;;4.38;;
33593;SDS011;19920;52.242;20.940;2023-06-14T17:13:22;8.32;;;4.80;;
33593;SDS011;19920;52.242;20.940;2023-06-14T17:15:47;8.60;;;4.13;;
33593;SDS011;19920;52.242;20.940;2023-06-14T17:18:13;9.07;;;4.70;;
33593;SDS011;19920;52.242;20.940;2023-06-14T17:20:39;7.38;;;4.32;;
33593;SDS011;19920;52.242;20.940;2023-06-14T17:23:04;8.80;;;4.47;;
33593;SDS011;19920;52.242;20.940;2023-06-14T17:25:30;5.13;;;4.47;;
33593;SDS011;19920;52.242;20.940;2023-06-14T17:27:56;6.68;;;4.68;;
33593;SDS011;19920;52.242;20.940;2023-06-14T17:30:22;6.07;;;4.80;;
33593;SDS011;19920;52.242;20.940;2023-06-14T17:32:48;7.68;;;4.80;;
33593;SDS011;19920;52.242;20.940;2023-06-14T17:35:14;6.68;;;4.78;;
33593;SDS011;19920;52.242;20.940;2023-06-14T17:37:40;5.60;;;4.47;;
33593;SDS011;19920;52.242;20.940;2023-06-14T17:40:06;8.75;;;5.03;;
33593;SDS011;19920;52.242;20.940;2023-06-14T17:42:32;5.80;;;4.45;;
33593;SDS011;19920;52.242;20.940;2023-06-14T17:44:58;8.15;;;5.10;;
33593;SDS011;19920;52.242;20.940;2023-06-14T17:47:24;7.28;;;4.25;;
33593;SDS011;19920;52.242;20.940;2023-06-14T17:49:50;9.65;;;4.75;;
33593;SDS011;19920;52.242;20.940;2023-06-14T17:52:19;7.47;;;4.28;;
33593;SDS011;19920;52.242;20.940;2023-06-14T17:54:46;6.65;;;4.70;;
33593;SDS011;19920;52.242;20.940;2023-06-14T17:57:12;7.03;;;4.43;;
33593;SDS011;19920;52.242;20.940;2023-06-14T17:59:38;5.90;;;4.20;;
33593;SDS011;19920;52.242;20.940;2023-06-14T18:02:03;4.93;;;4.43;;
33593;SDS011;19920;52.242;20.940;2023-06-14T18:04:30;8.50;;;4.43;;
33593;SDS011;19920;52.242;20.940;2023-06-14T18:06:56;9.23;;;4.75;;
33593;SDS011;19920;52.242;20.940;2023-06-14T18:09:21;9.75;;;5.13;;
33593;SDS011;19920;52.242;20.940;2023-06-14T18:11:47;9.15;;;4.72;;
33593;SDS011;19920;52.242;20.940;2023-06-14T18:14:13;7.07;;;4.50;;
33593;SDS011;19920;52.242;20.940;2023-06-14T18:16:38;7.60;;;4.28;;
33593;SDS011;19920;52.242;20.940;2023-06-14T18:19:06;7.68;;;4.45;;
33593;SDS011;19920;52.242;20.940;2023-06-14T18:21:32;9.38;;;4.40;;
33593;SDS011;19920;52.242;20.940;2023-06-14T18:23:58;6.25;;;4.20;;
33593;SDS011;19920;52.242;20.940;2023-06-14T18:26:24;6.07;;;4.07;;
33593;SDS011;19920;52.242;20.940;2023-06-14T18:28:53;9.02;;;4.40;;
33593;SDS011;19920;52.242;20.940;2023-06-14T18:31:19;6.78;;;4.38;;
33593;SDS011;19920;52.242;20.940;2023-06-14T18:33:45;7.97;;;4.38;;
33593;SDS011;19920;52.242;20.940;2023-06-14T18:36:12;6.10;;;4.38;;
33593;SDS011;19920;52.242;20.940;2023-06-14T18:38:37;6.13;;;4.50;;
33593;SDS011;19920;52.242;20.940;2023-06-14T18:41:03;9.57;;;4.38;;
33593;SDS011;19920;52.242;20.940;2023-06-14T18:43:29;6.75;;;5.05;;
33593;SDS011;19920;52.242;20.940;2023-06-14T18:45:57;10.95;;;4.75;;
33593;SDS011;19920;52.242;20.940;2023-06-14T18:48:24;8.45;;;3.90;;
33593;SDS011;19920;52.242;20.940;2023-06-14T18:50:50;7.03;;;4.63;;
33593;SDS011;19920;52.242;20.940;2023-06-14T18:53:15;6.85;;;4.18;;
33593;SDS011;19920;52.242;20.940;2023-06-14T18:55:41;4.88;;;4.40;;
33593;SDS011;19920;52.242;20.940;2023-06-14T18:58:08;7.38;;;5.00;;
33593;SDS011;19920;52.242;20.940;2023-06-14T19:00:34;5.78;;;4.43;;
33593;SDS011;19920;52.242;20.940;2023-06-14T19:03:00;5.15;;;4.35;;
33593;SDS011;19920;52.242;20.940;2023-06-14T19:05:28;7.40;;;4.50;;
33593;SDS011;19920;52.242;20.940;2023-06-14T19:07:56;11.02;;;4.88;;
33593;SDS011;19920;52.242;20.940;2023-06-14T19:10:22;7.30;;;5.05;;
33593;SDS011;19920;52.242;20.940;2023-06-14T19:12:48;7.82;;;5.03;;
33593;SDS011;19920;52.242;20.940;2023-06-14T19:15:14;7.03;;;4.70;;
33593;SDS011;19920;52.242;20.940;2023-06-14T19:17:40;9.95;;;5.35;;
33593;SDS011;19920;52.242;20.940;2023-06-14T19:20:06;10.30;;;5.38;;
33593;SDS011;19920;52.242;20.940;2023-06-14T19:22:32;7.93;;;4.97;;
33593;SDS011;19920;52.242;20.940;2023-06-14T19:24:58;9.98;;;4.90;;
33593;SDS011;19920;52.242;20.940;2023-06-14T19:27:24;6.00;;;5.40;;
33593;SDS011;19920;52.242;20.940;2023-06-14T19:29:50;10.23;;;4.85;;
33593;SDS011;19920;52.242;20.940;2023-06-14T19:32:16;6.45;;;5.05;;
33593;SDS011;19920;52.242;20.940;2023-06-14T19:34:42;7.53;;;4.85;;
33593;SDS011;19920;52.242;20.940;2023-06-14T19:37:10;6.95;;;5.15;;
33593;SDS011;19920;52.242;20.940;2023-06-14T19:39:36;7.60;;;4.90;;
33593;SDS011;19920;52.242;20.940;2023-06-14T19:42:02;5.85;;;5.22;;
33593;SDS011;19920;52.242;20.940;2023-06-14T19:44:28;5.55;;;5.05;;
33593;SDS011;19920;52.242;20.940;2023-06-14T19:46:53;9.82;;;5.07;;
33593;SDS011;19920;52.242;20.940;2023-06-14T19:49:19;9.98;;;4.88;;
33593;SDS011;19920;52.242;20.940;2023-06-14T19:51:45;7.47;;;5.50;;
33593;SDS011;19920;52.242;20.940;2023-06-14T19:54:11;8.80;;;5.68;;
33593;SDS011;19920;52.242;20.940;2023-06-14T19:56:36;8.20;;;5.43;;
33593;SDS011;19920;52.242;20.940;2023-06-14T19:59:02;7.10;;;5.43;;
33593;SDS011;19920;52.242;20.940;2023-06-14T20:01:28;8.63;;;5.35;;
33593;SDS011;19920;52.242;20.940;2023-06-14T20:03:53;10.60;;;5.30;;
33593;SDS011;19920;52.242;20.940;2023-06-14T20:06:19;10.50;;;5.70;;
33593;SDS011;19920;52.242;20.940;2023-06-14T20:08:45;11.85;;;5.80;;
33593;SDS011;19920;52.242;20.940;2023-06-14T20:11:12;8.85;;;6.13;;
33593;SDS011;19920;52.242;20.940;2023-06-14T20:13:38;9.52;;;5.90;;
33593;SDS011;19920;52.242;20.940;2023-06-14T20:16:04;9.88;;;6.13;;
33593;SDS011;19920;52.242;20.940;2023-06-14T20:18:30;7.75;;;5.70;;
33593;SDS011;19920;52.242;20.940;2023-06-14T20:20:56;7.85;;;6.28;;
33593;SDS011;19920;52.242;20.940;2023-06-14T20:23:22;7.60;;;6.43;;
33593;SDS011;19920;52.242;20.940;2023-06-14T20:25:47;8.70;;;6.90;;
33593;SDS011;19920;52.242;20.940;2023-06-14T20:28:15;9.40;;;6.47;;
33593;SDS011;19920;52.242;20.940;2023-06-14T20:30:40;10.23;;;6.28;;
33593;SDS011;19920;52.242;20.940;2023-06-14T20:33:06;7.50;;;6.55;;
33593;SDS011;19920;52.242;20.940;2023-06-14T20:35:32;10.07;;;7.13;;
33593;SDS011;19920;52.242;20.940;2023-06-14T20:37:58;10.55;;;7.93;;
33593;SDS011;19920;52.242;20.940;2023-06-14T20:40:24;10.68;;;7.35;;
33593;SDS011;19920;52.242;20.940;2023-06-14T20:42:50;10.95;;;8.10;;
33593;SDS011;19920;52.242;20.940;2023-06-14T20:45:18;11.55;;;8.05;;
33593;SDS011;19920;52.242;20.940;2023-06-14T20:47:44;11.45;;;8.13;;
33593;SDS011;19920;52.242;20.940;2023-06-14T20:50:10;12.05;;;8.27;;
33593;SDS011;19920;52.242;20.940;2023-06-14T20:52:39;12.65;;;9.30;;
33593;SDS011;19920;52.242;20.940;2023-06-14T20:55:07;11.18;;;8.30;;
33593;SDS011;19920;52.242;20.940;2023-06-14T20:57:33;11.35;;;8.15;;
33593;SDS011;19920;52.242;20.940;2023-06-14T21:00:00;10.30;;;8.82;;
33593;SDS011;19920;52.242;20.940;2023-06-14T21:02:34;11.10;;;7.75;;
33593;SDS011;19920;52.242;20.940;2023-06-14T21:05:00;11.65;;;8.05;;
33593;SDS011;19920;52.242;20.940;2023-06-14T21:07:26;11.45;;;8.93;;
33593;SDS011;19920;52.242;20.940;2023-06-14T21:09:51;9.65;;;7.95;;
33593;SDS011;19920;52.242;20.940;2023-06-14T21:12:17;10.43;;;9.10;;
33593;SDS011;19920;52.242;20.940;2023-06-14T21:14:43;14.45;;;8.30;;
33593;SDS011;19920;52.242;20.940;2023-06-14T21:17:09;12.45;;;8.85;;
33593;SDS011;19920;52.242;20.940;2023-06-14T21:19:35;11.27;;;8.20;;
33593;SDS011;19920;52.242;20.940;2023-06-14T21:22:02;10.60;;;8.82;;
33593;SDS011;19920;52.242;20.940;2023-06-14T21:24:28;14.73;;;9.40;;
33593;SDS011;19920;52.242;20.940;2023-06-14T21:26:54;12.43;;;8.30;;
33593;SDS011;19920;52.242;20.940;2023-06-14T21:29:19;10.60;;;9.05;;
33593;SDS011;19920;52.242;20.940;2023-06-14T21:31:45;10.52;;;8.93;;
33593;SDS011;19920;52.242;20.940;2023-06-14T21:34:11;11.93;;;9.15;;
33593;SDS011;19920;52.242;20.940;2023-06-14T21:36:36;9.63;;;8.55;;
33593;SDS011;19920;52.242;20.940;2023-06-14T21:39:02;11.63;;;8.90;;
33593;SDS011;19920;52.242;20.940;2023-06-14T21:41:27;13.63;;;8.95;;
33593;SDS011;19920;52.242;20.940;2023-06-14T21:43:54;11.40;;;8.55;;
33593;SDS011;19920;52.242;20.940;2023-06-14T21:46:19;13.10;;;9.65;;
33593;SDS011;19920;52.242;20.940;2023-06-14T21:48:45;11.35;;;9.52;;
33593;SDS011;19920;52.242;20.940;2023-06-14T21:51:11;12.68;;;9.73;;
33593;SDS011;19920;52.242;20.940;2023-06-14T21:53:36;12.02;;;9.82;;
33593;SDS011;19920;52.242;20.940;2023-06-14T21:56:02;13.38;;;9.18;;
33593;SDS011;19920;52.242;20.940;2023-06-14T21:58:28;14.55;;;10.10;;
33593;SDS011;19920;52.242;20.940;2023-06-14T22:00:53;12.20;;;9.75;;
33593;SDS011;19920;52.242;20.940;2023-06-14T22:03:19;11.80;;;9.68;;
33593;SDS011;19920;52.242;20.940;2023-06-14T22:05:45;12.23;;;9.52;;
33593;SDS011;19920;52.242;20.940;2023-06-14T22:08:10;11.55;;;9.50;;
33593;SDS011;19920;52.242;20.940;2023-06-14T22:10:37;10.60;;;8.80;;
33593;SDS011;19920;52.242;20.940;2023-06-14T22:13:03;9.93;;;8.73;;
33593;SDS011;19920;52.242;20.940;2023-06-14T22:15:29;12.75;;;8.65;;
33593;SDS011;19920;52.242;20.940;2023-06-14T22:17:55;11.85;;;8.55;;
33593;SDS011;19920;52.242;20.940;2023-06-14T22:20:22;12.27;;;8.98;;
33593;SDS011;19920;52.242;20.940;2023-06-14T22:22:48;12.45;;;9.20;;
33593;SDS011;19920;52.242;20.940;2023-06-14T22:25:15;16.52;;;9.52;;
33593;SDS011;19920;52.242;20.940;2023-06-14T22:27:41;13.02;;;9.68;;
33593;SDS011;19920;52.242;20.940;2023-06-14T22:30:14;13.07;;;8.90;;
33593;SDS011;19920;52.242;20.940;2023-06-14T22:32:43;10.68;;;8.98;;
33593;SDS011;19920;52.242;20.940;2023-06-14T22:35:10;14.90;;;9.32;;
33593;SDS011;19920;52.242;20.940;2023-06-14T22:37:36;10.82;;;9.30;;
33593;SDS011;19920;52.242;20.940;2023-06-14T22:40:05;11.98;;;9.90;;
33593;SDS011;19920;52.242;20.940;2023-06-14T22:45:06;12.13;;;8.88;;
33593;SDS011;19920;52.242;20.940;2023-06-14T22:47:32;12.40;;;8.40;;
33593;SDS011;19920;52.242;20.940;2023-06-14T22:49:58;11.90;;;9.25;;
33593;SDS011;19920;52.242;20.940;2023-06-14T22:52:24;10.65;;;8.93;;
33593;SDS011;19920;52.242;20.940;2023-06-14T22:54:53;10.25;;;8.48;;
33593;SDS011;19920;52.242;20.940;2023-06-14T22:57:19;12.88;;;8.95;;
33593;SDS011;19920;52.242;20.940;2023-06-14T22:59:48;11.65;;;8.65;;
33593;SDS011;19920;52.242;20.940;2023-06-14T23:02:19;14.88;;;9.30;;
33593;SDS011;19920;52.242;20.940;2023-06-14T23:04:45;14.55;;;9.35;;
33593;SDS011;19920;52.242;20.940;2023-06-14T23:07:13;13.55;;;9.40;;
33593;SDS011;19920;52.242;20.940;2023-06-14T23:09:39;15.75;;;9.77;;
33593;SDS011;19920;52.242;20.940;2023-06-14T23:12:07;15.73;;;9.23;;
33593;SDS011;19920;52.242;20.940;2023-06-14T23:14:33;11.57;;;8.82;;
33593;SDS011;19920;52.242;20.940;2023-06-14T23:17:00;14.20;;;9.05;;
33593;SDS011;19920;52.242;20.940;2023-06-14T23:19:26;12.45;;;8.80;;
33593;SDS011;19920;52.242;20.940;2023-06-14T23:21:55;12.40;;;9.23;;
33593;SDS011;19920;52.242;20.940;2023-06-14T23:24:24;13.27;;;8.47;;
33593;SDS011;19920;52.242;20.940;2023-06-14T23:26:52;10.80;;;8.73;;
33593;SDS011;19920;52.242;20.940;2023-06-14T23:29:26;12.93;;;8.95;;
33593;SDS011;19920;52.242;20.940;2023-06-14T23:31:55;14.45;;;8.68;;
33593;SDS011;19920;52.242;20.940;2023-06-14T23:34:22;10.73;;;8.90;;
33593;SDS011;19920;52.242;20.940;2023-06-14T23:36:48;10.68;;;9.10;;
33593;SDS011;19920;52.242;20.940;2023-06-14T23:39:14;10.20;;;8.52;;
33593;SDS011;19920;52.242;20.940;2023-06-14T23:41:42;12.15;;;8.85;;
33593;SDS011;19920;52.242;20.940;2023-06-14T23:44:07;10.43;;;8.50;;
33593;SDS011;19920;52.242;20.940;2023-06-14T23:46:33;10.73;;;9.23;;
33593;SDS011;19920;52.242;20.940;2023-06-14T23:48:59;10.90;;;9.13;;
33593;SDS011;19920;52.242;20.940;2023-06-14T23:51:25;13.13;;;8.98;;
33593;SDS011;19920;52.242;20.940;2023-06-14T23:53:52;13.07;;;8.52;;
33593;SDS011;19920;52.242;20.940;2023-06-14T23:56:20;11.88;;;8.30;;
33593;SDS011;19920;52.242;20.940;2023-06-14T23:58:49;9.93;;;8.27;;
